Time;durP1;ratioP1;P1;durP2;ratioP2;P2;SDS_P1;SDS_P2;PMS_P1;PMS_P2;Temp;Humidity;BMP_temperature;BMP_pressure;BME280_temperature;BME280_humidity;BME280_pressure;Samples;Min_cycle;Max_cycle;Signal;HPM_P1;HPM_P2
2023/03/13 00:01:46;;;;;;;5.90;1.33;;;9.40;99.90;;;;;;5090528;28;20178;-71
2023/03/13 00:04:11;;;;;;;8.97;2.00;;;9.60;99.90;;;;;;5090087;28;20274;-71
2023/03/13 00:06:38;;;;;;;10.53;1.93;;;9.60;99.90;;;;;;5088681;28;20491;-71
2023/03/13 00:09:06;;;;;;;10.57;2.03;;;9.60;99.90;;;;;;5090041;28;20202;-71
2023/03/13 00:11:33;;;;;;;16.33;2.70;;;9.60;99.90;;;;;;5089960;28;20445;-72
2023/03/13 00:14:01;;;;;;;6.77;1.73;;;9.50;99.90;;;;;;5090189;28;20876;-72
2023/03/13 00:16:28;;;;;;;14.33;1.70;;;9.60;99.90;;;;;;5089082;28;20421;-72
2023/03/13 00:18:55;;;;;;;8.53;2.00;;;9.60;99.90;;;;;;5089419;28;20459;-72
2023/03/13 00:21:23;;;;;;;6.50;1.90;;;9.50;99.90;;;;;;5090423;28;20837;-72
2023/03/13 00:23:49;;;;;;;6.40;1.40;;;9.50;99.90;;;;;;5090116;28;20414;-72
2023/03/13 00:26:18;;;;;;;6.23;1.80;;;9.60;99.90;;;;;;5090127;28;20408;-72
2023/03/13 00:28:44;;;;;;;9.43;2.10;;;9.60;99.90;;;;;;5089782;28;20451;-71
2023/03/13 00:31:28;;;;;;;19.73;2.37;;;9.70;99.90;;;;;;5087916;28;20432;-71
2023/03/13 00:33:57;;;;;;;5.33;1.50;;;9.70;99.90;;;;;;5089546;28;20847;-71
2023/03/13 00:36:25;;;;;;;8.70;1.90;;;9.80;99.90;;;;;;5089437;28;20421;-71
2023/03/13 00:38:52;;;;;;;6.43;1.90;;;9.80;99.90;;;;;;5089221;28;20476;-71
2023/03/13 00:41:20;;;;;;;3.03;1.17;;;9.70;99.90;;;;;;5089315;28;20409;-71
2023/03/13 00:43:47;;;;;;;5.10;1.30;;;9.70;99.90;;;;;;5089267;28;20420;-71
2023/03/13 00:46:15;;;;;;;5.20;1.60;;;9.70;99.90;;;;;;5089307;28;20464;-71
2023/03/13 00:48:41;;;;;;;3.93;1.20;;;9.80;99.90;;;;;;5089076;28;20440;-71
2023/03/13 00:51:07;;;;;;;8.87;2.07;;;9.80;99.90;;;;;;5089150;28;20412;-71
2023/03/13 00:53:33;;;;;;;9.00;1.90;;;9.80;99.90;;;;;;5089305;28;20444;-71
2023/03/13 00:56:12;;;;;;;6.37;1.83;;;9.70;99.90;;;;;;5089053;28;20978;-71
2023/03/13 00:58:39;;;;;;;6.83;1.83;;;9.80;99.90;;;;;;5088966;28;20544;-71
2023/03/13 01:01:12;;;;;;;16.10;1.60;;;9.80;99.90;;;;;;5089408;28;20424;-71
2023/03/13 01:03:39;;;;;;;4.00;1.30;;;9.80;99.90;;;;;;5089063;28;20443;-71
2023/03/13 01:06:08;;;;;;;6.13;1.47;;;9.80;99.90;;;;;;5089077;28;20413;-71
2023/03/13 01:08:35;;;;;;;11.40;1.83;;;9.80;99.90;;;;;;5088749;28;20437;-71
2023/03/13 01:11:08;;;;;;;9.50;1.43;;;9.80;99.90;;;;;;5087479;28;20818;-71
2023/03/13 01:13:35;;;;;;;5.17;1.50;;;9.70;99.90;;;;;;5088833;28;20468;-71
2023/03/13 01:16:10;;;;;;;9.73;2.30;;;9.80;99.90;;;;;;5087367;28;20421;-72
2023/03/13 01:18:38;;;;;;;6.20;1.03;;;9.80;99.90;;;;;;5088803;28;20471;-71
2023/03/13 01:21:04;;;;;;;4.53;1.17;;;9.90;99.90;;;;;;5088706;28;20409;-71
2023/03/13 01:23:30;;;;;;;8.97;1.90;;;9.90;99.90;;;;;;5088675;28;20933;-71
2023/03/13 01:25:56;;;;;;;6.37;1.53;;;9.90;99.90;;;;;;5088540;28;20440;-71
2023/03/13 01:28:23;;;;;;;6.67;1.63;;;9.90;99.90;;;;;;5086835;28;20689;-71
2023/03/13 01:30:49;;;;;;;3.90;1.20;;;9.90;99.90;;;;;;5088482;28;20415;-71
2023/03/13 01:33:16;;;;;;;11.33;2.00;;;10.00;99.90;;;;;;5086981;28;20417;-71
2023/03/13 01:35:41;;;;;;;11.23;2.60;;;10.00;99.90;;;;;;5088442;28;20429;-71
2023/03/13 01:38:08;;;;;;;5.43;1.40;;;10.00;99.90;;;;;;5086840;28;20480;-71
2023/03/13 01:40:45;;;;;;;5.07;1.37;;;10.00;99.90;;;;;;5088244;28;20322;-71
2023/03/13 01:43:23;;;;;;;3.67;1.10;;;10.00;99.90;;;;;;5088500;28;20905;-71
2023/03/13 01:45:58;;;;;;;7.07;1.40;;;10.00;99.90;;;;;;5088506;28;20793;-71
2023/03/13 01:48:45;;;;;;;8.40;1.77;;;10.00;99.90;;;;;;5087229;28;21239;-71
2023/03/13 01:51:33;;;;;;;5.27;1.37;;;10.00;99.90;;;;;;5088649;28;20514;-71
2023/03/13 01:54:06;;;;;;;3.93;1.20;;;10.00;99.90;;;;;;5088705;28;20420;-72
2023/03/13 01:56:40;;;;;;;4.33;0.93;;;10.00;99.90;;;;;;5088546;28;20420;-72
2023/03/13 01:59:09;;;;;;;3.33;1.50;;;10.00;99.90;;;;;;5086774;28;20479;-71
2023/03/13 02:01:35;;;;;;;4.30;1.00;;;10.00;99.90;;;;;;5088348;28;20431;-72
2023/03/13 02:04:01;;;;;;;5.03;1.23;;;10.10;99.90;;;;;;5088688;28;20444;-72
2023/03/13 02:06:30;;;;;;;3.73;1.57;;;10.20;99.90;;;;;;5070005;28;20453;-71
2023/03/13 02:09:04;;;;;;;6.93;2.07;;;10.20;99.90;;;;;;5088383;28;20436;-71
2023/03/13 02:11:57;;;;;;;5.33;0.90;;;10.20;99.90;;;;;;5087101;28;20976;-71
2023/03/13 02:14:29;;;;;;;6.00;1.20;;;10.20;99.90;;;;;;5088962;28;20523;-71
2023/03/13 02:16:55;;;;;;;2.40;1.50;;;10.30;99.90;;;;;;5089024;28;20428;-71
2023/03/13 02:19:28;;;;;;;2.90;0.93;;;10.40;99.90;;;;;;5087163;28;20476;-71
2023/03/13 02:22:10;;;;;;;5.70;1.03;;;10.40;99.90;;;;;;5088693;28;20428;-72
2023/03/13 02:24:46;;;;;;;2.27;0.70;;;10.50;99.90;;;;;;5088549;28;20412;-71
2023/03/13 02:27:12;;;;;;;6.60;1.73;;;10.50;99.90;;;;;;5088883;28;20425;-71
2023/03/13 02:29:37;;;;;;;9.93;1.40;;;10.50;99.90;;;;;;5087436;28;20852;-72
2023/03/13 02:32:03;;;;;;;3.50;1.10;;;10.60;99.90;;;;;;5087500;28;20569;-71
2023/03/13 02:34:34;;;;;;;3.50;1.40;;;10.60;99.90;;;;;;5087275;28;20658;-72
2023/03/13 02:37:01;;;;;;;4.00;1.30;;;10.60;99.90;;;;;;5086737;28;20935;-71
2023/03/13 02:39:30;;;;;;;4.10;1.00;;;10.60;99.90;;;;;;5086550;28;20490;-71
2023/03/13 02:41:57;;;;;;;2.53;0.97;;;10.50;99.90;;;;;;5090135;28;20417;-71
2023/03/13 02:44:23;;;;;;;3.23;0.80;;;10.50;99.90;;;;;;5073317;28;20939;-72
2023/03/13 02:46:51;;;;;;;4.00;1.10;;;10.60;99.90;;;;;;5091711;28;20497;-71
2023/03/13 02:49:23;;;;;;;2.93;0.70;;;10.70;99.90;;;;;;5090318;28;20640;-72
2023/03/13 02:51:50;;;;;;;3.87;1.60;;;10.70;99.90;;;;;;5091656;28;20416;-72
2023/03/13 02:54:21;;;;;;;1.33;0.70;;;10.80;99.90;;;;;;5091497;28;20795;-72
2023/03/13 02:56:50;;;;;;;4.60;1.00;;;10.80;99.90;;;;;;5089949;28;20422;-71
2023/03/13 02:59:16;;;;;;;3.07;0.93;;;10.80;99.90;;;;;;5089594;28;20475;-71
2023/03/13 03:01:42;;;;;;;5.20;1.50;;;10.80;99.90;;;;;;5091286;28;20431;-71
2023/03/13 03:04:07;;;;;;;3.37;0.90;;;10.90;99.90;;;;;;5091765;28;20192;-72
2023/03/13 03:06:33;;;;;;;3.07;1.00;;;10.90;99.90;;;;;;5091148;28;20378;-71
2023/03/13 03:08:58;;;;;;;4.80;0.90;;;10.90;99.90;;;;;;5091033;28;20210;-71
2023/03/13 03:11:24;;;;;;;5.63;1.43;;;11.00;99.90;;;;;;5091378;28;20194;-70
2023/03/13 03:13:50;;;;;;;3.73;1.17;;;11.00;99.90;;;;;;5089662;28;20606;-72
2023/03/13 03:16:18;;;;;;;2.87;0.90;;;11.00;99.90;;;;;;5089575;28;20198;-72
2023/03/13 03:18:43;;;;;;;4.10;1.50;;;11.00;99.90;;;;;;5090829;28;20225;-71
2023/03/13 03:21:09;;;;;;;1.70;0.70;;;11.00;99.90;;;;;;5089397;28;20425;-71
2023/03/13 03:23:35;;;;;;;1.73;1.00;;;11.00;99.90;;;;;;5089479;28;20676;-71
2023/03/13 03:26:03;;;;;;;1.40;0.70;;;11.00;99.90;;;;;;5091039;28;20180;-72
2023/03/13 03:28:29;;;;;;;3.07;1.20;;;11.00;99.90;;;;;;5089295;28;20422;-71
2023/03/13 03:30:55;;;;;;;5.93;0.90;;;11.00;99.90;;;;;;5090701;28;20421;-71
2023/03/13 03:33:21;;;;;;;2.70;0.70;;;11.00;99.90;;;;;;5090678;28;20181;-71
2023/03/13 03:35:47;;;;;;;5.33;1.00;;;10.80;99.90;;;;;;5090660;28;20415;-72
2023/03/13 03:38:13;;;;;;;5.63;0.90;;;10.70;99.90;;;;;;5090453;28;20538;-71
2023/03/13 03:40:39;;;;;;;1.80;0.90;;;10.50;99.90;;;;;;5089219;28;21283;-71
2023/03/13 03:43:04;;;;;;;2.37;0.80;;;10.60;99.90;;;;;;5090702;28;20190;-71
2023/03/13 03:45:30;;;;;;;3.20;1.27;;;10.50;99.90;;;;;;5090503;28;20190;-71
2023/03/13 03:47:58;;;;;;;2.30;0.60;;;10.50;99.90;;;;;;5089160;28;20209;-72
2023/03/13 03:50:24;;;;;;;3.47;0.80;;;10.60;99.90;;;;;;5089183;28;20255;-71
2023/03/13 03:52:50;;;;;;;3.87;0.80;;;10.80;99.90;;;;;;5089106;28;20832;-71
2023/03/13 03:55:16;;;;;;;3.73;1.17;;;10.80;99.90;;;;;;5090658;28;20479;-72
2023/03/13 03:57:42;;;;;;;6.90;1.20;;;10.80;99.90;;;;;;5089448;28;20719;-71
2023/03/13 04:00:10;;;;;;;1.37;0.60;;;10.80;99.90;;;;;;5090967;28;20527;-71
2023/03/13 04:02:36;;;;;;;1.90;0.70;;;10.80;99.90;;;;;;5089949;28;20175;-71
2023/03/13 04:05:03;;;;;;;2.43;1.37;;;10.80;99.90;;;;;;5090953;28;20474;-71
2023/03/13 04:07:28;;;;;;;4.23;1.30;;;10.80;99.90;;;;;;5090150;28;20650;-71
2023/03/13 04:09:54;;;;;;;5.33;1.03;;;10.70;99.90;;;;;;5088918;28;20535;-71
2023/03/13 04:12:19;;;;;;;3.40;0.93;;;10.60;99.90;;;;;;5090716;28;20195;-71
2023/03/13 04:14:45;;;;;;;5.23;0.97;;;10.70;99.90;;;;;;5090819;28;20193;-71
2023/03/13 04:17:10;;;;;;;4.67;1.10;;;10.70;99.90;;;;;;5090590;28;20189;-71
2023/03/13 04:19:36;;;;;;;1.57;0.70;;;10.60;99.90;;;;;;5088841;28;20305;-71
2023/03/13 04:22:02;;;;;;;2.80;0.80;;;10.60;99.90;;;;;;5088880;28;20195;-71
2023/03/13 04:24:27;;;;;;;6.30;1.17;;;10.70;99.90;;;;;;5089922;28;20182;-71
2023/03/13 04:26:53;;;;;;;1.37;0.63;;;10.70;99.90;;;;;;5089982;28;20216;-71
2023/03/13 04:29:18;;;;;;;2.70;0.83;;;10.80;99.90;;;;;;5088809;28;20204;-70
2023/03/13 04:31:44;;;;;;;3.87;1.07;;;10.80;99.90;;;;;;5090366;28;20192;-71
2023/03/13 04:34:10;;;;;;;2.60;0.80;;;10.80;99.90;;;;;;5090084;28;20256;-71
2023/03/13 04:36:35;;;;;;;2.30;1.00;;;10.80;99.90;;;;;;5090116;28;20193;-71
2023/03/13 04:39:01;;;;;;;2.03;0.93;;;10.70;99.90;;;;;;5090359;28;20300;-72
2023/03/13 04:41:26;;;;;;;3.13;1.17;;;10.60;99.90;;;;;;5088894;28;20197;-71
2023/03/13 04:43:52;;;;;;;1.73;1.10;;;10.60;99.90;;;;;;5088774;28;20630;-72
2023/03/13 04:46:17;;;;;;;2.40;1.37;;;10.50;99.90;;;;;;5090106;28;20190;-71
2023/03/13 04:48:43;;;;;;;2.83;0.77;;;10.30;99.90;;;;;;5088451;28;20574;-71
2023/03/13 04:51:09;;;;;;;4.10;1.10;;;10.30;99.90;;;;;;5089892;28;20230;-71
2023/03/13 04:53:34;;;;;;;2.97;1.20;;;10.30;99.90;;;;;;5088225;28;20194;-72
2023/03/13 04:56:00;;;;;;;3.20;1.47;;;10.30;99.90;;;;;;5088323;28;20190;-72
2023/03/13 04:58:25;;;;;;;2.90;0.90;;;10.20;99.90;;;;;;5089557;28;20286;-71
2023/03/13 05:00:52;;;;;;;3.77;0.90;;;10.30;99.90;;;;;;5089374;28;20178;-69
2023/03/13 05:03:18;;;;;;;4.10;1.00;;;10.20;99.90;;;;;;5088838;28;20558;-70
2023/03/13 05:05:43;;;;;;;1.87;0.80;;;10.20;99.90;;;;;;5088898;28;20409;-71
2023/03/13 05:08:10;;;;;;;2.27;0.87;;;10.20;99.90;;;;;;5087616;28;20583;-71
2023/03/13 05:10:35;;;;;;;3.53;0.83;;;10.30;99.90;;;;;;5089029;28;20209;-71
2023/03/13 05:13:01;;;;;;;4.17;1.43;;;10.30;99.90;;;;;;5088869;28;20428;-71
2023/03/13 05:15:27;;;;;;;2.17;0.93;;;10.20;99.90;;;;;;5088793;28;20435;-72
2023/03/13 05:17:52;;;;;;;3.00;1.00;;;10.30;99.90;;;;;;5088935;28;20186;-71
2023/03/13 05:20:18;;;;;;;1.50;0.80;;;10.30;99.90;;;;;;5087346;28;21006;-71
2023/03/13 05:22:44;;;;;;;3.77;1.03;;;10.40;99.90;;;;;;5089243;28;20182;-71
2023/03/13 05:25:10;;;;;;;4.90;1.33;;;10.40;99.90;;;;;;5088909;28;20190;-70
2023/03/13 05:27:35;;;;;;;2.93;1.00;;;10.40;99.90;;;;;;5089140;28;20262;-71
2023/03/13 05:30:01;;;;;;;7.87;1.30;;;10.50;99.90;;;;;;5088856;28;20210;-71
2023/03/13 05:32:26;;;;;;;2.10;1.00;;;10.50;99.90;;;;;;5087005;28;20194;-71
2023/03/13 05:34:52;;;;;;;1.63;1.27;;;10.50;99.90;;;;;;5070352;28;20659;-71
2023/03/13 05:37:17;;;;;;;4.40;1.23;;;10.50;99.90;;;;;;5088475;28;20206;-71
2023/03/13 05:39:43;;;;;;;3.77;1.00;;;10.60;99.90;;;;;;5088422;28;20225;-71
2023/03/13 05:42:09;;;;;;;1.80;0.77;;;10.70;99.90;;;;;;5087277;28;20186;-71
2023/03/13 05:44:34;;;;;;;2.67;0.80;;;10.80;99.90;;;;;;5087341;28;20275;-72
2023/03/13 05:47:00;;;;;;;2.60;0.60;;;10.80;99.90;;;;;;5087010;28;20283;-71
2023/03/13 05:49:25;;;;;;;1.00;0.70;;;11.00;99.90;;;;;;5086893;28;20259;-71
2023/03/13 05:51:51;;;;;;;1.73;0.80;;;11.10;99.90;;;;;;5068719;28;20186;-72
2023/03/13 05:54:16;;;;;;;1.80;0.80;;;11.10;99.90;;;;;;5068478;28;20201;-70
2023/03/13 05:56:43;;;;;;;1.80;1.03;;;11.20;99.90;;;;;;5086913;28;21009;-70
2023/03/13 05:59:09;;;;;;;1.27;0.90;;;11.20;99.90;;;;;;5086548;28;20651;-71
2023/03/13 06:01:35;;;;;;;2.60;1.33;;;11.30;99.90;;;;;;5086862;28;20429;-71
2023/03/13 06:04:00;;;;;;;0.80;0.50;;;11.30;99.90;;;;;;5085185;28;20195;-71
2023/03/13 06:06:26;;;;;;;0.80;0.57;;;11.40;99.90;;;;;;5086922;28;20655;-71
2023/03/13 06:08:52;;;;;;;1.10;0.50;;;11.70;99.90;;;;;;5086793;28;20203;-71
2023/03/13 06:11:18;;;;;;;2.17;0.70;;;11.60;99.90;;;;;;5087085;28;20719;-71
2023/03/13 06:13:43;;;;;;;1.50;0.50;;;11.80;99.90;;;;;;5087210;28;20427;-71
2023/03/13 06:16:09;;;;;;;1.10;0.50;;;11.80;99.90;;;;;;5088560;28;20670;-71
2023/03/13 06:18:35;;;;;;;5.00;0.60;;;12.00;99.90;;;;;;5091229;28;20256;-72
2023/03/13 06:21:01;;;;;;;1.27;0.40;;;12.00;99.90;;;;;;5091228;28;20415;-71
2023/03/13 06:23:27;;;;;;;1.27;0.57;;;12.00;99.90;;;;;;5091330;28;20188;-71
2023/03/13 06:25:54;;;;;;;1.30;0.50;;;12.10;99.90;;;;;;5089708;28;20420;-71
2023/03/13 06:28:20;;;;;;;0.70;0.40;;;12.20;99.90;;;;;;5091237;28;20518;-71
2023/03/13 06:30:45;;;;;;;1.17;0.47;;;12.30;99.90;;;;;;5089846;28;20576;-71
2023/03/13 06:33:11;;;;;;;0.90;0.47;;;12.30;99.90;;;;;;5091418;28;20615;-71
2023/03/13 06:35:41;;;;;;;0.90;0.40;;;12.40;99.90;;;;;;5091260;28;20189;-71
2023/03/13 06:38:08;;;;;;;1.10;0.57;;;12.40;99.90;;;;;;5089725;28;20218;-70
2023/03/13 06:40:33;;;;;;;0.70;0.43;;;12.40;99.90;;;;;;5091282;28;20479;-70
2023/03/13 06:42:59;;;;;;;0.80;0.50;;;12.50;99.90;;;;;;5091436;28;20418;-72
2023/03/13 06:45:24;;;;;;;1.13;0.60;;;12.50;99.90;;;;;;5091284;28;20655;-72
2023/03/13 06:47:51;;;;;;;0.90;0.40;;;12.50;99.90;;;;;;5090928;28;20195;-71
2023/03/13 06:50:17;;;;;;;0.80;0.40;;;12.50;99.90;;;;;;5089025;28;20613;-71
2023/03/13 06:52:43;;;;;;;0.80;0.50;;;12.50;99.90;;;;;;5089548;28;20431;-71
2023/03/13 06:55:09;;;;;;;0.70;0.40;;;12.60;99.90;;;;;;5090882;28;20782;-71
2023/03/13 06:57:35;;;;;;;1.33;0.50;;;12.60;99.90;;;;;;5089175;28;20433;-71
2023/03/13 07:00:00;;;;;;;1.57;0.50;;;12.60;99.90;;;;;;5091145;28;20478;-71
2023/03/13 07:02:26;;;;;;;3.80;0.60;;;12.60;99.90;;;;;;5090397;28;20594;-71
2023/03/13 07:04:52;;;;;;;0.90;0.50;;;12.60;99.90;;;;;;5090294;28;20661;-71
2023/03/13 07:07:17;;;;;;;0.70;0.40;;;12.70;99.90;;;;;;5089712;28;20708;-71
2023/03/13 07:09:43;;;;;;;1.83;0.70;;;12.70;99.90;;;;;;5089847;28;20211;-71
2023/03/13 07:12:09;;;;;;;0.70;0.40;;;12.60;99.90;;;;;;5088360;28;20196;-71
2023/03/13 07:14:34;;;;;;;0.90;0.50;;;12.70;99.90;;;;;;5090305;28;20190;-71
2023/03/13 07:17:00;;;;;;;1.53;0.50;;;12.60;99.90;;;;;;5088283;28;20628;-70
2023/03/13 07:19:26;;;;;;;0.80;0.50;;;12.60;99.90;;;;;;5071041;28;20219;-70
2023/03/13 07:21:52;;;;;;;0.90;0.50;;;12.70;99.90;;;;;;5089679;28;20179;-71
2023/03/13 07:24:18;;;;;;;1.73;0.50;;;12.70;99.90;;;;;;5089708;28;20517;-71
2023/03/13 07:26:43;;;;;;;2.17;0.40;;;12.70;99.90;;;;;;5087504;28;20425;-71
2023/03/13 07:29:09;;;;;;;1.60;0.50;;;12.80;99.90;;;;;;5087807;28;20526;-72
2023/03/13 07:31:36;;;;;;;1.13;0.53;;;12.80;99.90;;;;;;5089483;28;20188;-70
2023/03/13 07:34:01;;;;;;;0.90;0.50;;;12.80;99.90;;;;;;5087835;28;20501;-70
2023/03/13 07:36:28;;;;;;;1.37;0.73;;;12.70;99.90;;;;;;5089276;28;20594;-71
2023/03/13 07:38:54;;;;;;;3.03;1.30;;;12.70;99.90;;;;;;5070656;28;20608;-70
2023/03/13 07:41:20;;;;;;;4.40;0.60;;;12.80;99.90;;;;;;5087934;28;20413;-71
2023/03/13 07:43:46;;;;;;;1.77;0.67;;;12.80;99.90;;;;;;5089209;28;20233;-72
2023/03/13 07:46:18;;;;;;;1.73;0.60;;;12.80;99.90;;;;;;5089220;28;20413;-71
2023/03/13 07:48:44;;;;;;;1.10;0.60;;;12.80;99.90;;;;;;5088945;28;20445;-71
2023/03/13 07:51:17;;;;;;;0.80;0.50;;;12.80;99.90;;;;;;5089216;28;20836;-71
2023/03/13 07:53:43;;;;;;;1.83;0.50;;;12.90;99.90;;;;;;5089256;28;20425;-71
2023/03/13 07:56:12;;;;;;;0.90;0.60;;;13.00;99.90;;;;;;5087292;28;20413;-71
2023/03/13 07:58:39;;;;;;;1.10;0.90;;;13.10;99.90;;;;;;5086949;28;20481;-72
2023/03/13 08:01:13;;;;;;;1.00;0.80;;;13.10;99.90;;;;;;5088573;28;20951;-71
2023/03/13 08:03:39;;;;;;;1.30;1.10;;;13.10;99.90;;;;;;5087177;28;21092;-71
2023/03/13 08:06:07;;;;;;;1.10;0.73;;;13.20;99.90;;;;;;5088640;28;20429;-71
2023/03/13 08:08:34;;;;;;;1.17;0.93;;;13.20;99.90;;;;;;5070265;28;20533;-71
2023/03/13 08:11:10;;;;;;;0.83;0.83;;;13.20;99.90;;;;;;5088508;28;20466;-71
2023/03/13 08:13:37;;;;;;;1.47;0.77;;;13.20;99.90;;;;;;5088482;28;20789;-71
2023/03/13 08:16:27;;;;;;;2.07;1.40;;;13.20;99.90;;;;;;5088494;28;20418;-70
2023/03/13 08:18:55;;;;;;;1.83;1.73;;;13.20;99.90;;;;;;5088284;28;20472;-71
2023/03/13 08:21:26;;;;;;;2.80;1.33;;;13.20;99.90;;;;;;5088314;28;20411;-71
2023/03/13 08:23:54;;;;;;;1.90;0.80;;;13.20;99.90;;;;;;5088360;28;20798;-71
2023/03/13 08:26:21;;;;;;;3.87;1.23;;;13.20;99.90;;;;;;5086657;28;20419;-71
2023/03/13 08:28:54;;;;;;;2.33;1.20;;;13.20;99.90;;;;;;5088085;28;21114;-71
2023/03/13 08:31:23;;;;;;;0.80;0.50;;;13.30;99.90;;;;;;5088584;28;20489;-71
2023/03/13 08:33:49;;;;;;;2.20;1.13;;;13.30;99.90;;;;;;5088452;28;20911;-71
2023/03/13 08:36:26;;;;;;;0.80;0.60;;;13.40;99.90;;;;;;5088528;28;20422;-71
2023/03/13 08:38:54;;;;;;;1.70;0.83;;;13.40;99.90;;;;;;5087233;28;20812;-71
2023/03/13 08:41:26;;;;;;;1.93;1.73;;;13.50;99.90;;;;;;5088529;28;20941;-71
2023/03/13 08:43:53;;;;;;;3.07;1.30;;;13.50;99.90;;;;;;5088743;28;20510;-71
2023/03/13 08:46:18;;;;;;;0.80;0.57;;;13.60;99.90;;;;;;5088904;28;20997;-70
2023/03/13 08:48:47;;;;;;;2.77;2.53;;;13.60;99.90;;;;;;5086845;28;20527;-71
2023/03/13 08:51:14;;;;;;;1.50;1.00;;;13.80;99.90;;;;;;5088193;28;20193;-71
2023/03/13 08:53:41;;;;;;;1.73;0.80;;;13.90;99.90;;;;;;5086558;28;20930;-71
2023/03/13 08:56:12;;;;;;;5.10;3.10;;;13.90;99.90;;;;;;5088117;28;20870;-71
2023/03/13 08:58:38;;;;;;;3.33;1.20;;;13.90;99.90;;;;;;5088361;28;21219;-70
2023/03/13 09:01:07;;;;;;;0.90;0.60;;;13.90;99.90;;;;;;5088141;28;20419;-71
2023/03/13 09:03:33;;;;;;;1.70;0.83;;;13.90;99.90;;;;;;5087834;28;20416;-70
2023/03/13 09:06:00;;;;;;;1.10;0.90;;;13.90;99.90;;;;;;5088086;28;20409;-70
2023/03/13 09:08:26;;;;;;;1.53;0.70;;;13.90;99.90;;;;;;5087907;28;20232;-71
2023/03/13 09:11:07;;;;;;;0.80;0.53;;;14.00;99.90;;;;;;5087537;28;20411;-71
2023/03/13 09:13:35;;;;;;;4.63;0.93;;;14.00;99.90;;;;;;5087444;28;20431;-71
2023/03/13 09:16:12;;;;;;;1.73;0.80;;;14.10;99.90;;;;;;5087643;28;20927;-71
2023/03/13 09:18:38;;;;;;;1.43;0.90;;;14.20;99.90;;;;;;5087328;28;20490;-71
2023/03/13 09:21:11;;;;;;;4.63;0.60;;;14.20;99.90;;;;;;5087399;28;20470;-71
2023/03/13 09:23:37;;;;;;;1.03;0.67;;;14.20;99.90;;;;;;5087345;28;20515;-70
2023/03/13 09:26:03;;;;;;;2.30;0.70;;;14.30;99.90;;;;;;5087418;28;20507;-71
2023/03/13 09:28:29;;;;;;;0.83;0.63;;;14.30;99.90;;;;;;5087235;28;20748;-71
2023/03/13 09:30:54;;;;;;;3.57;1.03;;;14.40;99.90;;;;;;5087516;28;20786;-71
2023/03/13 09:33:22;;;;;;;0.80;0.50;;;14.50;99.90;;;;;;5087381;28;21015;-71
2023/03/13 09:35:51;;;;;;;0.90;0.70;;;14.80;99.90;;;;;;5087041;28;20238;-71
2023/03/13 09:38:19;;;;;;;1.60;0.83;;;15.10;99.90;;;;;;5086754;28;20504;-70
2023/03/13 09:40:47;;;;;;;5.03;0.80;;;15.50;99.90;;;;;;5086978;28;20971;-71
2023/03/13 09:43:36;;;;;;;2.40;0.73;;;16.20;99.90;;;;;;5087091;28;20787;-71
2023/03/13 09:46:08;;;;;;;0.90;0.73;;;16.40;99.90;;;;;;5085399;28;20868;-70
2023/03/13 09:48:40;;;;;;;1.93;0.60;;;17.00;99.90;;;;;;5086909;28;20432;-71
2023/03/13 09:51:23;;;;;;;3.97;1.20;;;17.40;99.90;;;;;;5085495;28;20420;-71
2023/03/13 09:54:06;;;;;;;2.20;0.70;;;17.70;99.90;;;;;;5086988;28;20455;-70
2023/03/13 09:56:49;;;;;;;1.30;0.70;;;17.90;99.90;;;;;;5087044;28;20412;-71
2023/03/13 09:59:46;;;;;;;2.40;0.70;;;17.90;99.90;;;;;;5086837;28;20501;-71
2023/03/13 10:02:33;;;;;;;1.73;0.80;;;17.70;99.90;;;;;;5076977;28;20422;-71
2023/03/13 10:04:59;;;;;;;1.00;0.73;;;17.30;99.90;;;;;;5086047;28;20433;-70
2023/03/13 10:07:24;;;;;;;1.70;0.70;;;17.00;99.90;;;;;;5087276;28;20408;-72
2023/03/13 10:09:52;;;;;;;1.77;0.80;;;16.80;99.90;;;;;;5086000;28;20595;-71
2023/03/13 10:12:27;;;;;;;4.37;1.20;;;16.60;99.90;;;;;;5085854;28;20182;-71
2023/03/13 10:15:18;;;;;;;1.43;0.87;;;16.60;99.90;;;;;;5086983;28;20415;-71
2023/03/13 10:17:44;;;;;;;2.10;1.10;;;16.70;99.90;;;;;;5087008;28;20408;-71
2023/03/13 10:20:32;;;;;;;1.63;1.10;;;16.80;99.90;;;;;;5085218;28;20472;-70
2023/03/13 10:23:21;;;;;;;2.80;1.30;;;17.30;99.50;;;;;;5086848;28;20456;-71
2023/03/13 10:25:47;;;;;;;2.53;0.87;;;17.40;98.40;;;;;;5072163;28;20474;-71
2023/03/13 10:28:15;;;;;;;3.07;1.40;;;17.80;98.10;;;;;;5086585;28;20421;-71
2023/03/13 10:31:33;;;;;;;2.93;1.00;;;18.50;97.20;;;;;;5086675;28;20192;-71
2023/03/13 10:34:10;;;;;;;3.57;1.00;;;19.50;95.40;;;;;;5084364;28;20767;-71
2023/03/13 10:36:53;;;;;;;1.80;1.17;;;20.00;93.10;;;;;;5086257;28;20412;-72
2023/03/13 10:39:22;;;;;;;2.40;0.83;;;19.70;92.10;;;;;;5086494;28;20472;-71
2023/03/13 10:41:49;;;;;;;2.13;1.07;;;20.10;91.20;;;;;;5085081;28;20922;-71
2023/03/13 10:44:17;;;;;;;6.53;1.40;;;20.70;90.60;;;;;;5086533;28;20863;-71
2023/03/13 10:46:45;;;;;;;4.53;1.63;;;20.50;86.50;;;;;;5084907;28;20427;-71
2023/03/13 10:49:17;;;;;;;2.13;1.10;;;20.80;86.10;;;;;;5086681;28;20445;-71
2023/03/13 10:52:09;;;;;;;3.37;1.10;;;20.50;84.40;;;;;;5086972;28;20428;-72
2023/03/13 10:54:38;;;;;;;3.67;0.90;;;20.90;86.50;;;;;;5086751;28;20480;-72
2023/03/13 10:57:18;;;;;;;2.70;1.27;;;20.40;86.40;;;;;;5086359;28;20415;-71
2023/03/13 10:59:49;;;;;;;1.40;0.90;;;20.40;86.50;;;;;;5086313;28;20898;-71
2023/03/13 11:02:36;;;;;;;1.83;0.83;;;20.50;86.20;;;;;;5087638;28;20416;-72
2023/03/13 11:05:27;;;;;;;0.90;0.70;;;20.80;86.40;;;;;;5090047;28;20423;-71
2023/03/13 11:07:53;;;;;;;5.07;1.00;;;20.90;84.20;;;;;;5050429;28;20487;-71
2023/03/13 11:10:20;;;;;;;3.57;0.93;;;21.00;84.00;;;;;;5089806;28;20443;-71
2023/03/13 11:12:51;;;;;;;2.87;1.57;;;20.50;84.20;;;;;;5089634;28;20440;-70
2023/03/13 11:15:43;;;;;;;2.20;1.00;;;20.10;85.00;;;;;;5089750;28;20728;-70
2023/03/13 11:18:21;;;;;;;2.77;1.20;;;20.10;86.70;;;;;;5089748;28;20724;-71
2023/03/13 11:20:48;;;;;;;7.60;1.40;;;20.10;86.40;;;;;;5089616;28;20431;-71
2023/03/13 11:23:35;;;;;;;3.60;1.40;;;20.70;88.20;;;;;;5089508;28;20922;-71
2023/03/13 11:26:15;;;;;;;4.40;1.10;;;20.90;83.90;;;;;;5089507;28;20476;-70
2023/03/13 11:28:44;;;;;;;1.83;1.27;;;21.00;84.60;;;;;;5089499;28;20442;-72
2023/03/13 11:31:31;;;;;;;2.50;1.27;;;21.10;82.80;;;;;;5089387;28;20530;-71
2023/03/13 11:34:31;;;;;;;3.30;0.80;;;21.80;84.90;;;;;;5089455;28;20413;-72
2023/03/13 11:37:12;;;;;;;2.37;1.57;;;21.50;80.10;;;;;;5089102;28;20439;-72
2023/03/13 11:40:05;;;;;;;1.83;1.10;;;22.00;81.30;;;;;;5087613;28;20566;-72
2023/03/13 11:42:58;;;;;;;4.33;1.13;;;21.90;81.60;;;;;;5089267;28;20571;-71
2023/03/13 11:45:49;;;;;;;2.13;0.80;;;22.40;80.10;;;;;;5089162;28;20799;-71
2023/03/13 11:48:34;;;;;;;7.60;1.67;;;22.20;78.90;;;;;;5088955;28;20427;-71
2023/03/13 11:51:19;;;;;;;6.30;1.80;;;21.80;80.20;;;;;;5089525;28;20432;-72
2023/03/13 11:54:20;;;;;;;2.10;1.20;;;21.70;80.90;;;;;;5089553;28;21031;-71
2023/03/13 11:56:53;;;;;;;3.93;1.07;;;21.70;80.50;;;;;;5079183;28;20807;-71
2023/03/13 11:59:42;;;;;;;5.40;1.00;;;22.20;81.00;;;;;;5089501;28;20473;-71
2023/03/13 12:02:34;;;;;;;1.73;0.90;;;22.50;80.70;;;;;;5089525;28;20960;-71
2023/03/13 12:05:06;;;;;;;1.23;0.80;;;22.60;78.70;;;;;;5089760;28;20412;-71
2023/03/13 12:07:34;;;;;;;2.50;0.97;;;23.00;77.50;;;;;;5089437;28;20523;-71
2023/03/13 12:10:11;;;;;;;5.60;1.17;;;23.40;77.50;;;;;;5089252;28;20438;-72
2023/03/13 12:12:43;;;;;;;1.30;1.00;;;23.70;74.40;;;;;;5089129;28;20454;-71
2023/03/13 12:15:22;;;;;;;5.50;1.67;;;23.60;74.50;;;;;;5087733;28;20470;-71
2023/03/13 12:17:57;;;;;;;10.20;1.43;;;23.30;73.10;;;;;;5089011;28;20430;-73
2023/03/13 12:20:33;;;;;;;5.03;1.43;;;23.30;74.80;;;;;;5087100;28;21318;-76
2023/03/13 12:23:20;;;;;;;2.20;0.80;;;23.70;73.50;;;;;;5088414;28;20493;-75
2023/03/13 12:26:03;;;;;;;4.50;1.03;;;23.70;73.10;;;;;;5090613;28;20404;-76
2023/03/13 12:28:32;;;;;;;4.93;0.93;;;23.70;70.80;;;;;;5089737;28;20442;-76
2023/03/13 12:31:06;;;;;;;1.97;0.90;;;23.30;69.60;;;;;;5089562;28;20418;-76
2023/03/13 12:33:45;;;;;;;1.57;1.03;;;23.90;71.70;;;;;;5089779;28;20797;-76
2023/03/13 12:36:19;;;;;;;1.43;1.07;;;24.20;69.90;;;;;;5089413;28;20444;-76
2023/03/13 12:38:59;;;;;;;3.57;1.20;;;24.10;69.10;;;;;;5087389;28;20499;-76
2023/03/13 12:41:35;;;;;;;1.63;1.20;;;24.10;69.80;;;;;;5089182;28;20421;-76
2023/03/13 12:44:00;;;;;;;5.40;1.23;;;23.90;69.00;;;;;;5089410;28;20905;-75
2023/03/13 12:46:33;;;;;;;5.17;1.07;;;24.00;67.10;;;;;;5087899;28;20450;-77
2023/03/13 12:49:23;;;;;;;1.90;1.03;;;24.10;67.20;;;;;;5087466;28;20237;-76
2023/03/13 12:52:11;;;;;;;3.73;1.40;;;23.90;68.30;;;;;;5087752;28;20926;-75
2023/03/13 12:54:42;;;;;;;4.50;1.50;;;23.90;68.50;;;;;;5087762;28;20926;-75
2023/03/13 12:57:57;;;;;;;3.07;1.10;;;23.80;65.70;;;;;;5089397;28;20436;-76
2023/03/13 13:00:27;;;;;;;2.47;1.00;;;23.70;67.00;;;;;;5088570;28;20450;-76
2023/03/13 13:03:16;;;;;;;5.53;1.10;;;23.20;62.10;;;;;;5087963;28;20433;-76
2023/03/13 13:06:04;;;;;;;2.70;1.10;;;23.40;64.10;;;;;;5088081;28;20409;-76